createdAt,value
2023-04-18T00:00:52.720Z,241.15
2023-04-18T00:01:52.859Z,240.97
2023-04-18T00:02:52.954Z,241.27
2023-04-18T00:03:53.144Z,241.18
2023-04-18T00:04:52.948Z,240.73
2023-04-18T00:05:52.919Z,240.92
2023-04-18T00:06:52.949Z,240.88
2023-04-18T00:07:53.026Z,241.02
2023-04-18T00:08:53.047Z,241.10
2023-04-18T00:09:53.017Z,241.09
2023-04-18T00:10:53.026Z,241.27
2023-04-18T00:11:53.047Z,241.10
2023-04-18T00:12:53.084Z,241.50
2023-04-18T00:13:53.031Z,241.76
2023-04-18T00:14:53.040Z,240.94
2023-04-18T00:15:53.036Z,241.58
2023-04-18T00:16:53.083Z,240.97
2023-04-18T00:17:53.132Z,241.14
2023-04-18T00:18:53.046Z,240.67
2023-04-18T00:19:53.044Z,240.70
2023-04-18T00:20:53.045Z,240.37
2023-04-18T00:21:53.051Z,240.46
2023-04-18T00:22:53.046Z,240.28
2023-04-18T00:23:53.049Z,240.53
2023-04-18T00:24:53.093Z,240.70
2023-04-18T00:25:53.131Z,240.59
2023-04-18T00:26:53.203Z,239.83
2023-04-18T00:27:53.224Z,240.46
2023-04-18T00:28:53.260Z,240.50
2023-04-18T00:29:53.307Z,240.24
2023-04-18T00:30:53.363Z,239.98
2023-04-18T00:31:53.379Z,240.40
2023-04-18T00:32:53.452Z,240.14
2023-04-18T00:33:53.484Z,240.19
2023-04-18T00:34:53.509Z,240.75
2023-04-18T00:35:53.547Z,240.02
2023-04-18T00:36:53.599Z,239.57
2023-04-18T00:37:53.634Z,240.54
2023-04-18T00:38:53.690Z,239.76
2023-04-18T00:39:53.726Z,239.95
2023-04-18T00:40:53.806Z,239.64
2023-04-18T00:41:53.818Z,240.12
2023-04-18T00:42:53.850Z,239.70
2023-04-18T00:43:54.100Z,239.78
2023-04-18T00:44:53.986Z,239.19
2023-04-18T00:45:54.067Z,239.58
2023-04-18T00:46:54.049Z,239.71
2023-04-18T00:47:54.124Z,238.70
2023-04-18T00:48:54.148Z,239.17
2023-04-18T00:49:54.189Z,239.08
2023-04-18T00:50:54.220Z,239.17
2023-04-18T00:51:54.400Z,239.40
2023-04-18T00:52:54.341Z,239.49
2023-04-18T00:53:54.364Z,239.33
2023-04-18T00:54:54.405Z,239.93
2023-04-18T00:55:54.452Z,239.03
2023-04-18T00:56:54.567Z,239.75
2023-04-18T00:57:54.555Z,239.17
2023-04-18T00:58:54.609Z,239.11
2023-04-18T00:59:54.632Z,239.44
2023-04-18T01:00:54.722Z,239.46
2023-04-18T01:01:54.966Z,239.27
2023-04-18T01:02:54.852Z,239.93
2023-04-18T01:03:55.034Z,239.45
2023-04-18T01:04:54.899Z,239.35
2023-04-18T01:05:54.913Z,239.77
2023-04-18T01:06:54.932Z,239.59
2023-04-18T01:07:54.980Z,239.40
2023-04-18T01:08:55.031Z,238.68
2023-04-18T01:09:55.078Z,239.32
2023-04-18T01:10:55.117Z,238.93
2023-04-18T01:11:55.148Z,239.24
2023-04-18T01:12:55.195Z,239.22
2023-04-18T01:13:55.251Z,238.96
2023-04-18T01:14:55.293Z,238.93
2023-04-18T01:15:55.375Z,239.05
2023-04-18T01:16:55.376Z,238.98
2023-04-18T01:17:55.468Z,239.49
2023-04-18T01:18:55.475Z,239.03
2023-04-18T01:19:55.537Z,238.81
2023-04-18T01:20:55.573Z,239.12
2023-04-18T01:21:55.588Z,239.19
2023-04-18T01:22:55.585Z,239.30
2023-04-18T01:23:55.647Z,239.33
2023-04-18T01:24:55.584Z,239.20
2023-04-18T01:25:55.610Z,239.13
2023-04-18T01:26:55.621Z,238.78
2023-04-18T01:27:55.617Z,238.01
2023-04-18T01:28:55.613Z,238.67
2023-04-18T01:29:55.626Z,238.46
2023-04-18T01:30:55.643Z,238.51
2023-04-18T01:31:55.622Z,238.85
2023-04-18T01:32:55.673Z,238.01
2023-04-18T01:33:55.630Z,238.65
2023-04-18T01:34:55.644Z,238.58
2023-04-18T01:35:55.652Z,238.45
2023-04-18T01:36:55.681Z,238.19
2023-04-18T01:37:55.731Z,238.33
2023-04-18T01:38:55.791Z,238.23
2023-04-18T01:39:55.825Z,238.49
2023-04-18T01:40:55.884Z,238.71
2023-04-18T01:41:55.929Z,237.68
2023-04-18T01:42:55.980Z,238.15
2023-04-18T01:43:56.018Z,237.96
2023-04-18T01:44:56.053Z,238.58
2023-04-18T01:45:56.128Z,238.00
2023-04-18T01:46:56.261Z,238.37
2023-04-18T01:47:56.292Z,237.99
2023-04-18T01:48:56.263Z,238.72
2023-04-18T01:49:56.303Z,238.06
2023-04-18T01:50:56.356Z,238.45
2023-04-18T01:51:56.400Z,237.88
2023-04-18T01:52:56.443Z,237.90
2023-04-18T01:53:56.488Z,238.28
2023-04-18T01:54:56.532Z,238.09
2023-04-18T01:55:56.586Z,237.98
2023-04-18T01:56:56.618Z,238.04
2023-04-18T01:57:56.669Z,238.07
2023-04-18T01:58:56.700Z,237.71
2023-04-18T01:59:56.779Z,237.97
2023-04-18T02:00:56.829Z,238.17
2023-04-18T02:01:56.893Z,238.25
2023-04-18T02:02:56.929Z,238.36
2023-04-18T02:03:56.913Z,238.35
2023-04-18T02:04:56.802Z,238.66
2023-04-18T02:05:56.815Z,238.26
2023-04-18T02:06:56.829Z,238.40
2023-04-18T02:07:56.805Z,238.46
2023-04-18T02:08:56.823Z,238.07
2023-04-18T02:09:56.814Z,238.21
2023-04-18T02:10:56.838Z,237.49
2023-04-18T02:11:56.826Z,237.71
2023-04-18T02:12:56.820Z,238.11
2023-04-18T02:13:56.822Z,238.25
2023-04-18T02:14:56.824Z,238.32
2023-04-18T02:15:56.930Z,237.18
2023-04-18T02:16:56.889Z,237.53
2023-04-18T02:17:56.891Z,237.46
2023-04-18T02:18:56.838Z,237.05
2023-04-18T02:19:56.872Z,237.85
2023-04-18T02:20:56.918Z,238.03
2023-04-18T02:21:56.969Z,237.67
2023-04-18T02:22:57.010Z,238.04
2023-04-18T02:23:57.072Z,236.91
2023-04-18T02:24:57.114Z,237.17
2023-04-18T02:25:57.151Z,237.35
2023-04-18T02:26:57.193Z,237.51
2023-04-18T02:27:57.228Z,237.05
2023-04-18T02:28:57.287Z,237.17
2023-04-18T02:29:57.324Z,236.92
2023-04-18T02:30:57.382Z,237.58
2023-04-18T02:31:57.437Z,237.16
2023-04-18T02:32:57.523Z,237.09
2023-04-18T02:33:57.500Z,237.18
2023-04-18T02:34:57.541Z,237.15
2023-04-18T02:35:57.598Z,236.67
2023-04-18T02:36:57.650Z,236.91
2023-04-18T02:37:57.677Z,236.72
2023-04-18T02:38:57.730Z,236.14
2023-04-18T02:39:57.777Z,236.41
2023-04-18T02:40:57.843Z,236.75
2023-04-18T02:41:57.873Z,236.30
2023-04-18T02:42:57.925Z,236.39
2023-04-18T02:43:57.976Z,236.29
2023-04-18T02:44:58.014Z,236.11
2023-04-18T02:45:58.104Z,236.42
2023-04-18T02:46:58.133Z,235.80
2023-04-18T02:47:58.203Z,235.89
2023-04-18T02:48:58.252Z,236.06
2023-04-18T02:49:58.280Z,236.05
2023-04-18T02:50:58.346Z,235.45
2023-04-18T02:51:58.381Z,236.70
2023-04-18T02:52:58.447Z,235.91
2023-04-18T02:53:58.465Z,236.86
2023-04-18T02:54:58.484Z,236.92
2023-04-18T02:55:58.491Z,236.94
2023-04-18T02:56:58.496Z,236.99
2023-04-18T02:57:58.503Z,236.73
2023-04-18T02:58:58.507Z,236.31
2023-04-18T02:59:58.518Z,232.55
2023-04-18T03:00:58.572Z,224.53
2023-04-18T03:01:58.568Z,216.94
2023-04-18T03:02:58.589Z,211.95
2023-04-18T03:03:58.569Z,207.53
2023-04-18T03:04:58.625Z,203.17
2023-04-18T03:05:58.577Z,198.86
2023-04-18T03:06:58.580Z,192.68
2023-04-18T03:07:58.606Z,188.00
2023-04-18T03:08:58.611Z,182.64
2023-04-18T03:09:58.630Z,177.39
2023-04-18T03:10:58.658Z,174.33
2023-04-18T03:11:58.686Z,168.63
2023-04-18T03:12:58.695Z,163.99
2023-04-18T03:13:58.730Z,159.76
2023-04-18T03:14:58.761Z,155.59
2023-04-18T03:15:59.011Z,151.78
2023-04-18T03:16:58.858Z,149.03
2023-04-18T03:17:58.959Z,146.17
2023-04-18T03:18:58.947Z,142.92
2023-04-18T03:19:58.981Z,140.52
2023-04-18T03:20:59.031Z,136.38
2023-04-18T03:21:59.080Z,133.77
2023-04-18T03:22:59.126Z,130.96
2023-04-18T03:23:59.189Z,129.12
2023-04-18T03:24:59.232Z,126.01
2023-04-18T03:25:59.266Z,123.83
2023-04-18T03:26:59.304Z,121.12
2023-04-18T03:27:59.368Z,117.69
2023-04-18T03:28:59.406Z,115.98
2023-04-18T03:29:59.446Z,112.53
2023-04-18T03:30:59.538Z,111.52
2023-04-18T03:31:59.662Z,108.79
2023-04-18T03:32:59.636Z,107.40
2023-04-18T03:33:59.653Z,105.47
2023-04-18T03:34:59.701Z,102.74
2023-04-18T03:35:59.754Z,100.57
2023-04-18T03:36:59.776Z,100.12
2023-04-18T03:37:59.789Z,97.32
2023-04-18T03:38:59.809Z,97.14
2023-04-18T03:39:59.825Z,96.51
2023-04-18T03:40:59.871Z,94.98
2023-04-18T03:41:59.865Z,93.19
2023-04-18T03:42:59.899Z,92.00
2023-04-18T03:43:59.919Z,90.46
2023-04-18T03:44:59.917Z,90.77
2023-04-18T03:45:59.995Z,88.86
2023-04-18T03:46:59.953Z,87.61
2023-04-18T03:48:00.030Z,86.56
2023-04-18T03:48:59.988Z,84.88
2023-04-18T03:50:00.012Z,84.91
2023-04-18T03:51:00.040Z,82.38
2023-04-18T03:52:00.051Z,81.69
2023-04-18T03:53:00.070Z,79.02
2023-04-18T03:54:00.105Z,76.81
2023-04-18T03:55:00.169Z,75.95
2023-04-18T03:56:00.154Z,74.78
2023-04-18T03:57:00.165Z,73.61
2023-04-18T03:58:00.175Z,71.01
2023-04-18T03:59:00.202Z,69.23
2023-04-18T04:00:00.243Z,67.89
2023-04-18T04:01:00.325Z,66.25
2023-04-18T04:02:00.510Z,65.09
2023-04-18T04:03:00.570Z,61.01
2023-04-18T04:04:00.596Z,59.24
2023-04-18T04:05:00.632Z,58.83
2023-04-18T04:06:00.603Z,55.35
2023-04-18T04:07:00.625Z,53.02
2023-04-18T04:08:00.637Z,52.33
2023-04-18T04:09:00.664Z,51.36
2023-04-18T04:10:00.675Z,51.58
2023-04-18T04:11:00.693Z,50.72
2023-04-18T04:12:00.708Z,50.33
2023-04-18T04:13:00.729Z,50.23
2023-04-18T04:14:00.796Z,48.31
2023-04-18T04:15:00.855Z,49.12
2023-04-18T04:16:00.970Z,49.13
2023-04-18T04:17:00.997Z,48.61
2023-04-18T04:18:01.072Z,48.91
2023-04-18T04:19:01.132Z,47.88
2023-04-18T04:20:01.210Z,48.20
2023-04-18T04:21:01.288Z,48.05
2023-04-18T04:22:01.372Z,47.99
2023-04-18T04:23:01.428Z,48.21
2023-04-18T04:24:01.552Z,48.40
2023-04-18T04:25:01.591Z,48.06
2023-04-18T04:26:01.759Z,47.60
2023-04-18T04:27:01.760Z,46.89
2023-04-18T04:28:01.826Z,46.77
2023-04-18T04:29:01.900Z,45.38
2023-04-18T04:30:01.973Z,47.82
2023-04-18T04:31:02.085Z,48.06
2023-04-18T04:32:02.226Z,47.35
2023-04-18T04:33:02.251Z,49.65
2023-04-18T04:34:02.298Z,47.46
2023-04-18T04:35:02.390Z,50.01
2023-04-18T04:36:02.498Z,49.12
2023-04-18T04:37:02.567Z,49.91
2023-04-18T04:38:02.660Z,51.70
2023-04-18T04:39:02.746Z,52.01
2023-04-18T04:40:02.852Z,51.26
2023-04-18T04:41:02.906Z,53.95
2023-04-18T04:42:02.941Z,53.98
2023-04-18T04:43:02.959Z,54.05
2023-04-18T04:44:02.969Z,54.67
2023-04-18T04:45:03.032Z,55.34
2023-04-18T04:46:03.044Z,56.49
2023-04-18T04:47:03.033Z,57.59
2023-04-18T04:48:03.046Z,60.41
2023-04-18T04:49:03.040Z,61.32
2023-04-18T04:50:03.061Z,62.70
2023-04-18T04:51:03.080Z,66.89
2023-04-18T04:52:03.178Z,69.08
2023-04-18T04:53:03.171Z,69.48
2023-04-18T04:54:03.202Z,70.08
2023-04-18T04:55:03.245Z,71.59
2023-04-18T04:56:03.239Z,71.63
2023-04-18T04:57:03.272Z,71.79
2023-04-18T04:58:03.277Z,72.45
2023-04-18T04:59:03.287Z,72.01
2023-04-18T05:00:03.299Z,72.56
2023-04-18T05:01:03.325Z,70.95
2023-04-18T05:02:03.471Z,70.15
2023-04-18T05:03:03.490Z,68.90
2023-04-18T05:04:03.446Z,67.83
2023-04-18T05:05:03.362Z,67.52
2023-04-18T05:06:03.391Z,67.19
2023-04-18T05:07:03.420Z,65.30
2023-04-18T05:08:03.587Z,64.00
2023-04-18T05:09:03.484Z,63.42
2023-04-18T05:10:03.505Z,63.42
2023-04-18T05:11:03.552Z,62.01
2023-04-18T05:12:03.619Z,63.21
2023-04-18T05:13:03.660Z,63.67
2023-04-18T05:14:03.680Z,63.52
2023-04-18T05:15:03.709Z,60.14
2023-04-18T05:16:03.711Z,61.07
2023-04-18T05:17:03.796Z,61.67
2023-04-18T05:18:03.792Z,61.52
2023-04-18T05:19:03.783Z,60.09
2023-04-18T05:20:03.793Z,61.72
2023-04-18T05:21:03.796Z,61.82
2023-04-18T05:22:03.812Z,60.71
2023-04-18T05:23:03.838Z,58.21
2023-04-18T05:24:03.843Z,55.88
2023-04-18T05:25:03.854Z,55.08
2023-04-18T05:26:03.876Z,51.16
2023-04-18T05:27:03.887Z,48.60
2023-04-18T05:28:03.960Z,45.06
2023-04-18T05:29:03.940Z,43.40
2023-04-18T05:30:03.941Z,40.47
2023-04-18T05:31:04.039Z,36.14
2023-04-18T05:32:03.989Z,34.33
2023-04-18T05:33:04.086Z,40.38
2023-04-18T05:34:03.999Z,39.56
2023-04-18T05:35:04.009Z,40.06
2023-04-18T05:36:04.024Z,44.29
2023-04-18T05:37:04.051Z,56.64
2023-04-18T05:38:04.062Z,79.40
2023-04-18T05:39:04.106Z,114.43
2023-04-18T05:40:04.097Z,125.02
2023-04-18T05:41:04.082Z,131.09
2023-04-18T05:42:04.089Z,139.54
2023-04-18T05:43:04.105Z,145.69
2023-04-18T05:44:17.177Z,150.24
2023-04-18T05:45:05.159Z,150.58
2023-04-18T05:46:04.196Z,152.78
2023-04-18T05:47:04.366Z,158.55
2023-04-18T05:48:04.257Z,169.27
2023-04-18T05:49:04.170Z,188.13
2023-04-18T05:50:04.176Z,196.39
2023-04-18T05:51:04.196Z,207.71
2023-04-18T05:52:04.188Z,198.28
2023-04-18T05:53:04.196Z,89.63
2023-04-18T05:54:04.264Z,49.90
2023-04-18T05:55:04.290Z,25.00
2023-04-18T05:56:04.361Z,24.56
2023-04-18T05:57:04.946Z,22.18
2023-04-18T05:58:04.457Z,14.36
2023-04-18T05:59:04.541Z,16.94
2023-04-18T06:00:04.585Z,22.95
2023-04-18T06:01:04.634Z,25.00
2023-04-18T06:02:04.791Z,26.51
2023-04-18T06:03:04.956Z,45.22
2023-04-18T06:04:04.960Z,63.36
2023-04-18T06:05:05.168Z,78.87
2023-04-18T06:06:05.028Z,91.54
2023-04-18T06:07:05.132Z,94.02
2023-04-18T06:08:05.169Z,99.07
2023-04-18T06:09:05.237Z,102.28
2023-04-18T06:10:05.311Z,105.23
2023-04-18T06:11:05.364Z,111.77
2023-04-18T06:12:05.420Z,112.84
2023-04-18T06:13:05.447Z,105.75
2023-04-18T06:14:05.523Z,98.76
2023-04-18T06:15:05.501Z,92.12
2023-04-18T06:16:05.589Z,90.84
2023-04-18T06:17:05.564Z,90.85
2023-04-18T06:18:05.605Z,87.72
2023-04-18T06:19:05.605Z,89.74
2023-04-18T06:20:05.620Z,87.65
2023-04-18T06:21:05.636Z,91.48
2023-04-18T06:22:05.652Z,85.45
2023-04-18T06:23:05.688Z,81.56
2023-04-18T06:24:05.701Z,80.09
2023-04-18T06:25:05.732Z,80.17
2023-04-18T06:26:05.734Z,80.82
2023-04-18T06:27:05.772Z,83.17
2023-04-18T06:28:05.807Z,85.70
2023-04-18T06:29:05.807Z,88.79
2023-04-18T06:30:05.820Z,88.42
2023-04-18T06:31:05.889Z,92.69
2023-04-18T06:32:05.931Z,94.01
2023-04-18T06:33:05.926Z,98.35
2023-04-18T06:34:05.919Z,99.52
2023-04-18T06:35:05.932Z,97.31
2023-04-18T06:36:05.954Z,99.43
2023-04-18T06:37:05.979Z,108.72
2023-04-18T06:38:05.990Z,118.38
2023-04-18T06:39:06.006Z,129.41
2023-04-18T06:40:06.007Z,138.82
2023-04-18T06:41:06.047Z,147.78
2023-04-18T06:42:06.050Z,154.99
2023-04-18T06:43:06.062Z,165.09
2023-04-18T06:44:06.148Z,173.01
2023-04-18T06:45:06.094Z,157.97
2023-04-18T06:46:06.245Z,163.50
2023-04-18T06:47:06.136Z,158.80
2023-04-18T06:48:06.174Z,135.96
2023-04-18T06:49:06.164Z,119.77
2023-04-18T06:50:06.208Z,107.62
2023-04-18T06:51:06.179Z,111.39
2023-04-18T06:52:06.215Z,104.82
2023-04-18T06:53:06.217Z,98.74
2023-04-18T06:54:06.230Z,102.96
2023-04-18T06:55:06.224Z,97.97
2023-04-18T06:56:06.241Z,85.16
2023-04-18T06:57:06.252Z,74.33
2023-04-18T06:58:06.266Z,75.88
2023-04-18T06:59:06.312Z,76.16
2023-04-18T07:00:06.494Z,76.05
2023-04-18T07:01:06.333Z,79.46
2023-04-18T07:02:06.362Z,84.70
2023-04-18T07:03:08.017Z,81.06
2023-04-18T07:04:06.397Z,71.66
2023-04-18T07:05:06.364Z,65.77
2023-04-18T07:06:06.380Z,51.75
2023-04-18T07:07:06.398Z,60.63
2023-04-18T07:08:06.402Z,40.49
2023-04-18T07:09:06.430Z,31.48
2023-04-18T07:10:06.460Z,35.82
2023-04-18T07:11:06.464Z,20.37
2023-04-18T07:12:06.489Z,12.49
2023-04-18T07:13:06.484Z,11.71
2023-04-18T07:14:06.511Z,4.59
2023-04-18T07:15:06.543Z,4.18
2023-04-18T07:16:06.540Z,18.68
2023-04-18T07:17:06.684Z,21.43
2023-04-18T07:18:06.620Z,27.45
2023-04-18T07:19:06.568Z,24.07
2023-04-18T07:20:06.588Z,31.74
2023-04-18T07:21:06.600Z,10.50
2023-04-18T07:22:06.607Z,22.81
2023-04-18T07:23:06.675Z,37.43
2023-04-18T07:24:06.638Z,38.21
2023-04-18T07:25:06.646Z,25.02
2023-04-18T07:26:06.649Z,25.33
2023-04-18T07:27:06.670Z,28.18
2023-04-18T07:28:06.680Z,27.96
2023-04-18T07:29:06.687Z,21.28
2023-04-18T07:30:06.706Z,23.21
2023-04-18T07:31:06.776Z,24.41
2023-04-18T07:32:08.382Z,19.44
2023-04-18T07:33:06.764Z,32.47
2023-04-18T07:34:06.762Z,32.59
2023-04-18T07:35:06.822Z,29.69
2023-04-18T07:36:06.799Z,36.34
2023-04-18T07:37:06.807Z,51.32
2023-04-18T07:38:06.830Z,77.93
2023-04-18T07:39:06.850Z,96.00
2023-04-18T07:40:06.890Z,111.51
2023-04-18T07:41:06.907Z,130.78
2023-04-18T07:42:06.910Z,143.23
2023-04-18T07:43:06.925Z,151.25
2023-04-18T07:44:06.959Z,162.45
2023-04-18T07:45:06.942Z,171.41
2023-04-18T07:46:06.971Z,178.68
2023-04-18T07:47:06.987Z,185.07
2023-04-18T07:48:07.023Z,191.50
2023-04-18T07:49:06.994Z,196.78
2023-04-18T07:50:07.015Z,201.10
2023-04-18T07:51:07.032Z,206.03
2023-04-18T07:52:07.026Z,209.19
2023-04-18T07:53:07.030Z,210.75
2023-04-18T07:54:07.044Z,214.03
2023-04-18T07:55:07.070Z,215.36
2023-04-18T07:56:07.089Z,218.14
2023-04-18T07:57:07.112Z,219.21
2023-04-18T07:58:07.121Z,219.91
2023-04-18T07:59:07.186Z,221.73
2023-04-18T08:00:07.217Z,222.02
2023-04-18T08:01:07.286Z,223.50
2023-04-18T08:02:07.349Z,224.16
2023-04-18T08:03:07.564Z,224.91
2023-04-18T08:04:07.865Z,224.70
2023-04-18T08:05:07.651Z,224.65
2023-04-18T08:06:07.567Z,224.79
2023-04-18T08:07:07.660Z,224.53
2023-04-18T08:08:07.770Z,224.75
2023-04-18T08:09:07.838Z,223.26
2023-04-18T08:10:07.876Z,222.36
2023-04-18T08:11:07.939Z,221.61
2023-04-18T08:12:08.000Z,219.66
2023-04-18T08:13:08.099Z,219.26
2023-04-18T08:14:08.175Z,217.91
2023-04-18T08:15:08.217Z,214.88
2023-04-18T08:16:08.278Z,213.03
2023-04-18T08:17:08.333Z,211.16
2023-04-18T08:18:08.403Z,210.39
2023-04-18T08:19:08.443Z,209.20
2023-04-18T08:20:08.480Z,209.22
2023-04-18T08:21:08.519Z,207.82
2023-04-18T08:22:08.550Z,207.73
2023-04-18T08:23:11.170Z,204.90
2023-04-18T08:24:08.568Z,203.59
2023-04-18T08:25:08.597Z,204.33
2023-04-18T08:26:08.590Z,204.50
2023-04-18T08:27:08.591Z,204.98
2023-04-18T08:28:08.613Z,205.13
2023-04-18T08:29:08.620Z,206.14
2023-04-18T08:30:08.635Z,205.52
2023-04-18T08:31:08.696Z,204.50
2023-04-18T08:32:08.700Z,205.65
2023-04-18T08:33:08.691Z,209.06
2023-04-18T08:34:08.644Z,211.24
2023-04-18T08:35:08.662Z,211.30
2023-04-18T08:36:08.676Z,210.69
2023-04-18T08:37:08.674Z,207.43
2023-04-18T08:38:08.680Z,205.88
2023-04-18T08:39:08.686Z,205.01
2023-04-18T08:40:08.692Z,203.00
2023-04-18T08:41:08.705Z,200.74
2023-04-18T08:42:08.701Z,199.28
2023-04-18T08:43:08.704Z,197.04
2023-04-18T08:44:08.710Z,193.61
2023-04-18T08:45:08.722Z,190.53
2023-04-18T08:46:08.773Z,188.66
2023-04-18T08:47:08.733Z,186.55
2023-04-18T08:48:08.846Z,185.57
2023-04-18T08:49:10.719Z,176.80
2023-04-18T08:50:08.870Z,176.87
2023-04-18T08:51:08.875Z,177.87
2023-04-18T08:52:08.881Z,178.12
2023-04-18T08:53:08.865Z,179.32
2023-04-18T08:54:08.881Z,182.28
2023-04-18T08:55:08.887Z,187.67
2023-04-18T08:56:08.873Z,194.59
2023-04-18T08:57:08.870Z,194.85
2023-04-18T08:58:08.861Z,193.72
2023-04-18T08:59:08.873Z,196.49
2023-04-18T09:00:08.886Z,195.76
2023-04-18T09:01:08.943Z,199.35
2023-04-18T09:02:09.109Z,200.79
2023-04-18T09:03:09.116Z,203.02
2023-04-18T09:04:09.143Z,203.18
2023-04-18T09:05:09.142Z,206.29
2023-04-18T09:06:09.217Z,205.84
2023-04-18T09:07:09.269Z,207.79
2023-04-18T09:08:09.354Z,210.25
2023-04-18T09:09:09.405Z,210.57
2023-04-18T09:10:09.440Z,211.84
2023-04-18T09:11:09.489Z,213.05
2023-04-18T09:12:09.540Z,212.98
2023-04-18T09:13:09.596Z,214.03
2023-04-18T09:14:09.676Z,213.92
2023-04-18T09:15:09.705Z,212.44
2023-04-18T09:16:09.781Z,211.25
2023-04-18T09:17:09.775Z,210.61
2023-04-18T09:18:09.853Z,210.86
2023-04-18T09:19:09.854Z,210.12
2023-04-18T09:20:09.897Z,209.33
2023-04-18T09:21:09.905Z,208.85
2023-04-18T09:22:09.947Z,213.35
2023-04-18T09:23:09.981Z,215.34
2023-04-18T09:24:10.032Z,215.80
2023-04-18T09:25:10.036Z,215.95
2023-04-18T09:26:10.031Z,216.43
2023-04-18T09:27:10.047Z,217.39
2023-04-18T09:28:10.035Z,219.88
2023-04-18T09:29:10.037Z,224.01
2023-04-18T09:30:10.043Z,225.08
2023-04-18T09:31:10.103Z,226.65
2023-04-18T09:32:10.047Z,228.90
2023-04-18T09:33:10.089Z,230.84
2023-04-18T09:34:10.153Z,232.83
2023-04-18T09:35:10.231Z,233.48
2023-04-18T09:36:10.289Z,235.21
2023-04-18T09:37:10.413Z,237.14
2023-04-18T09:38:10.426Z,238.23
2023-04-18T09:39:10.469Z,240.11
2023-04-18T09:40:10.590Z,241.05
2023-04-18T09:41:10.598Z,240.22
2023-04-18T09:42:10.696Z,238.85
2023-04-18T09:43:10.746Z,239.09
2023-04-18T09:44:13.974Z,239.19
2023-04-18T09:45:10.680Z,239.22
2023-04-18T09:46:10.713Z,239.61
2023-04-18T09:47:10.684Z,240.76
2023-04-18T09:48:10.773Z,242.95
2023-04-18T09:49:11.267Z,245.52
2023-04-18T09:50:10.689Z,243.59
2023-04-18T09:51:10.703Z,243.84
2023-04-18T09:52:10.707Z,243.94
2023-04-18T09:53:10.694Z,244.26
2023-04-18T09:54:10.758Z,244.47
2023-04-18T09:55:10.695Z,244.63
2023-04-18T09:56:10.750Z,243.91
2023-04-18T09:57:10.718Z,244.12
2023-04-18T09:58:10.715Z,243.88
2023-04-18T09:59:10.718Z,243.93
2023-04-18T10:00:10.782Z,244.37
2023-04-18T10:01:10.735Z,244.60
2023-04-18T10:02:10.746Z,243.76
2023-04-18T10:03:10.849Z,243.74
2023-04-18T10:04:10.750Z,243.62
2023-04-18T10:05:10.896Z,242.89
2023-04-18T10:06:10.749Z,240.90
2023-04-18T10:07:10.720Z,236.34
2023-04-18T10:08:10.733Z,231.20
2023-04-18T10:10:29.584Z,25.00
2023-04-18T10:11:29.673Z,25.00
2023-04-18T10:12:29.551Z,25.00
2023-04-18T10:13:29.561Z,25.00
2023-04-18T10:14:29.562Z,25.00
2023-04-18T10:15:29.567Z,24.43
2023-04-18T10:16:29.610Z,24.71
2023-04-18T10:17:29.848Z,15.33
2023-04-18T10:18:29.586Z,26.63
2023-04-18T10:19:29.580Z,26.07
2023-04-18T10:20:29.525Z,24.99
2023-04-18T10:21:29.548Z,28.59
2023-04-18T10:22:29.503Z,25.00
2023-04-18T10:23:29.487Z,22.70
2023-04-18T10:24:29.472Z,27.39
2023-04-18T10:25:29.475Z,25.18
2023-04-18T10:26:29.527Z,25.36
2023-04-18T10:27:29.623Z,27.06
2023-04-18T10:28:29.471Z,25.00
2023-04-18T10:29:29.429Z,25.06
2023-04-18T10:30:29.424Z,25.62
2023-04-18T10:31:29.446Z,25.00
2023-04-18T10:32:29.455Z,29.22
2023-04-18T10:33:31.863Z,32.75
2023-04-18T10:34:29.390Z,32.95
2023-04-18T10:35:29.392Z,0.88
2023-04-18T10:36:29.397Z,9.15
2023-04-18T10:37:29.371Z,28.43
2023-04-18T10:38:29.441Z,84.56
2023-04-18T10:39:29.377Z,29.52
2023-04-18T10:40:29.342Z,39.68
2023-04-18T10:41:29.346Z,55.14
2023-04-18T10:42:29.330Z,77.36
2023-04-18T10:43:29.321Z,103.96
2023-04-18T10:44:29.322Z,121.76
2023-04-18T10:45:29.331Z,136.54
2023-04-18T10:46:32.467Z,149.12
2023-04-18T10:47:29.405Z,149.29
2023-04-18T10:48:29.296Z,88.82
2023-04-18T10:49:32.115Z,74.77
2023-04-18T10:50:29.276Z,45.45
2023-04-18T10:51:29.282Z,0.00
2023-04-18T10:52:29.268Z,4.82
2023-04-18T10:53:29.234Z,0.00
2023-04-18T10:54:29.244Z,0.00
2023-04-18T10:55:29.229Z,16.60
2023-04-18T10:56:29.286Z,26.30
2023-04-18T10:57:29.259Z,32.68
2023-04-18T10:58:29.223Z,33.09
2023-04-18T10:59:29.498Z,37.45
2023-04-18T11:00:29.202Z,39.80
2023-04-18T11:01:32.118Z,41.80
2023-04-18T11:02:29.255Z,37.10
2023-04-18T11:03:29.188Z,35.18
2023-04-18T11:04:29.261Z,38.09
2023-04-18T11:05:29.118Z,43.63
2023-04-18T11:06:29.129Z,41.45
2023-04-18T11:07:30.058Z,32.56
2023-04-18T11:08:29.086Z,32.55
2023-04-18T11:09:29.079Z,31.45
2023-04-18T11:10:29.073Z,38.46
2023-04-18T11:11:29.064Z,41.51
2023-04-18T11:12:29.064Z,31.89
2023-04-18T11:13:29.042Z,30.19
2023-04-18T11:14:29.057Z,35.92
2023-04-18T11:15:30.873Z,58.03
2023-04-18T11:16:29.080Z,26.16
2023-04-18T11:17:29.041Z,20.86
2023-04-18T11:18:28.976Z,31.47
2023-04-18T11:19:28.972Z,28.93
2023-04-18T11:20:28.948Z,25.72
2023-04-18T11:21:30.676Z,0.00
2023-04-18T11:22:29.021Z,0.00
2023-04-18T11:23:28.912Z,0.00
2023-04-18T11:24:28.896Z,12.16
2023-04-18T11:25:28.868Z,24.16
2023-04-18T11:26:28.866Z,25.34
2023-04-18T11:27:28.843Z,42.72
2023-04-18T11:28:28.821Z,73.61
2023-04-18T11:29:28.796Z,109.74
2023-04-18T11:30:28.823Z,150.03
2023-04-18T11:31:29.014Z,175.87
2023-04-18T11:32:28.843Z,201.95
2023-04-18T11:33:28.756Z,207.48
2023-04-18T11:34:28.743Z,208.11
2023-04-18T11:35:28.800Z,212.19
2023-04-18T11:36:28.772Z,209.17
2023-04-18T11:37:28.777Z,209.53
2023-04-18T11:38:28.762Z,217.82
2023-04-18T11:39:28.766Z,231.75
2023-04-18T11:40:28.745Z,250.85
2023-04-18T11:41:28.761Z,209.33
2023-04-18T11:42:28.629Z,209.88
2023-04-18T11:43:28.624Z,194.63
2023-04-18T11:44:28.598Z,194.72
2023-04-18T11:45:28.592Z,190.07
2023-04-18T11:46:28.618Z,203.21
2023-04-18T11:47:28.589Z,203.48
2023-04-18T11:48:28.547Z,155.92
2023-04-18T11:49:28.538Z,136.44
2023-04-18T11:50:28.516Z,149.67
2023-04-18T11:51:28.515Z,154.57
2023-04-18T11:52:28.509Z,159.39
2023-04-18T11:53:28.490Z,151.99
2023-04-18T11:54:28.475Z,155.49
2023-04-18T11:55:28.469Z,185.21
2023-04-18T11:56:28.445Z,199.76
2023-04-18T11:57:28.428Z,212.36
2023-04-18T11:58:28.406Z,184.84
2023-04-18T11:59:28.389Z,182.70
2023-04-18T12:00:28.391Z,189.52
2023-04-18T12:01:28.355Z,185.81
2023-04-18T12:02:28.501Z,183.31
2023-04-18T12:03:28.484Z,188.43
2023-04-18T12:04:28.423Z,190.21
2023-04-18T12:05:28.396Z,177.16
2023-04-18T12:06:28.373Z,181.47
2023-04-18T12:07:28.301Z,170.87
2023-04-18T12:08:28.271Z,158.57
2023-04-18T12:09:28.259Z,165.98
2023-04-18T12:10:28.271Z,164.74
2023-04-18T12:11:28.279Z,159.51
2023-04-18T12:12:28.347Z,163.29
2023-04-18T12:13:28.384Z,163.44
2023-04-18T12:14:28.442Z,172.74
2023-04-18T12:15:28.519Z,175.50
2023-04-18T12:16:28.632Z,170.51
2023-04-18T12:17:28.617Z,177.11
2023-04-18T12:18:28.663Z,188.11
2023-04-18T12:19:28.645Z,185.46
2023-04-18T12:20:28.631Z,187.13
2023-04-18T12:21:28.624Z,191.25
2023-04-18T12:22:28.610Z,195.45
2023-04-18T12:23:28.579Z,198.85
2023-04-18T12:24:28.608Z,208.81
2023-04-18T12:25:28.570Z,223.17
2023-04-18T12:26:28.567Z,223.56
2023-04-18T12:27:28.538Z,224.83
2023-04-18T12:28:28.545Z,229.51
2023-04-18T12:29:28.512Z,241.10
2023-04-18T12:30:28.514Z,258.39
2023-04-18T12:31:28.547Z,250.50
2023-04-18T12:32:28.555Z,250.00
2023-04-18T12:33:28.481Z,250.00
2023-04-18T12:34:28.468Z,246.95
2023-04-18T12:35:28.483Z,249.61
2023-04-18T12:36:28.503Z,247.74
2023-04-18T12:37:28.554Z,250.00
2023-04-18T12:38:28.599Z,250.00
2023-04-18T12:39:28.659Z,250.00